createdAt,value
2019-02-28T00:02:31.452Z,28.00
2019-02-28T00:05:05.845Z,30.43
2019-02-28T00:07:36.201Z,30.40
2019-02-28T00:10:09.747Z,32.03
2019-02-28T00:12:41.232Z,33.43
2019-02-28T00:15:16.357Z,30.70
2019-02-28T00:17:47.891Z,34.03
2019-02-28T00:20:19.535Z,37.27
2019-02-28T00:22:51.139Z,34.80
2019-02-28T00:25:22.611Z,33.80
2019-02-28T00:27:54.074Z,37.27
2019-02-28T00:30:25.544Z,34.17
2019-02-28T00:32:59.341Z,36.20
2019-02-28T00:35:30.155Z,34.87
2019-02-28T00:38:01.661Z,35.43
2019-02-28T00:40:33.183Z,33.27
2019-02-28T00:43:04.639Z,36.20
2019-02-28T00:45:37.270Z,36.87
2019-02-28T00:48:08.936Z,38.13
2019-02-28T00:50:40.608Z,39.67
2019-02-28T00:53:12.113Z,40.53
2019-02-28T00:55:45.932Z,41.00
2019-02-28T00:58:16.753Z,38.60
2019-02-28T01:00:48.239Z,38.93
2019-02-28T01:03:19.787Z,38.17
2019-02-28T01:05:51.402Z,39.87
2019-02-28T01:08:23.085Z,39.43
2019-02-28T01:10:54.573Z,39.03
2019-02-28T01:13:28.070Z,42.07
2019-02-28T01:16:00.617Z,40.50
2019-02-28T01:18:34.452Z,42.90
2019-02-28T01:21:05.237Z,42.03
2019-02-28T01:23:36.687Z,42.47
2019-02-28T01:26:08.161Z,43.50
2019-02-28T01:28:39.609Z,42.90
2019-02-28T01:31:20.868Z,42.63
2019-02-28T01:33:52.357Z,44.67
2019-02-28T01:36:23.867Z,42.03
2019-02-28T01:38:57.977Z,41.90
2019-02-28T01:41:28.920Z,44.37
2019-02-28T01:44:02.758Z,42.50
2019-02-28T01:46:34.434Z,44.40
2019-02-28T01:49:05.877Z,45.27
2019-02-28T01:51:37.354Z,43.57
2019-02-28T01:54:08.817Z,42.70
2019-02-28T01:56:40.380Z,43.97
2019-02-28T01:59:11.855Z,43.20
2019-02-28T02:01:43.346Z,44.10
2019-02-28T02:04:14.773Z,44.60
2019-02-28T02:06:46.304Z,44.57
2019-02-28T02:09:17.752Z,42.50
2019-02-28T02:11:49.253Z,41.30
2019-02-28T02:14:20.687Z,45.37
2019-02-28T02:16:52.134Z,43.10
2019-02-28T02:19:24.661Z,45.60
2019-02-28T02:21:56.134Z,42.83
2019-02-28T02:24:27.865Z,45.27
2019-02-28T02:27:00.321Z,42.50
2019-02-28T02:29:32.448Z,45.50
2019-02-28T02:32:05.484Z,42.30
2019-02-28T02:34:37.017Z,44.50
2019-02-28T02:37:12.255Z,48.20
2019-02-28T02:39:43.735Z,45.63
2019-02-28T02:42:15.196Z,45.23
2019-02-28T02:44:46.672Z,45.30
2019-02-28T02:47:21.309Z,47.47
2019-02-28T02:49:57.463Z,46.20
2019-02-28T02:52:30.134Z,44.93
2019-02-28T02:55:01.825Z,48.00
2019-02-28T02:57:33.334Z,47.93
2019-02-28T03:00:06.102Z,47.67
2019-02-28T03:02:37.994Z,44.77
2019-02-28T03:05:09.955Z,46.97
2019-02-28T03:07:41.478Z,46.50
2019-02-28T03:10:17.651Z,45.30
2019-02-28T03:12:47.905Z,50.57
2019-02-28T03:15:24.914Z,45.50
2019-02-28T03:17:52.537Z,48.47
2019-02-28T03:20:24.035Z,49.10
2019-02-28T03:22:55.540Z,42.50
2019-02-28T03:25:28.341Z,44.63
2019-02-28T03:28:01.164Z,48.77
2019-02-28T03:30:33.778Z,49.17
2019-02-28T03:33:05.586Z,48.03
2019-02-28T03:35:43.265Z,49.20
2019-02-28T03:38:11.677Z,46.37
2019-02-28T03:40:44.640Z,49.00
2019-02-28T03:43:16.182Z,45.97
2019-02-28T03:45:50.201Z,47.37
2019-02-28T03:48:21.759Z,48.60
2019-02-28T03:50:55.402Z,51.40
2019-02-28T03:53:26.451Z,49.90
2019-02-28T03:55:57.933Z,48.90
2019-02-28T03:58:29.403Z,44.00
2019-02-28T04:01:00.874Z,51.40
2019-02-28T04:03:33.745Z,53.10
2019-02-28T04:06:05.670Z,48.97
2019-02-28T04:08:37.158Z,49.70
2019-02-28T04:11:08.619Z,54.60
2019-02-28T04:13:40.081Z,53.43
2019-02-28T04:16:11.604Z,50.90
2019-02-28T04:18:46.167Z,52.03
2019-02-28T04:21:16.238Z,54.80
2019-02-28T04:23:47.779Z,48.90
2019-02-28T04:26:19.281Z,54.00
2019-02-28T04:28:54.719Z,56.23
2019-02-28T04:31:24.202Z,52.73
2019-02-28T04:33:55.756Z,51.93
2019-02-28T04:36:27.358Z,53.03
2019-02-28T04:38:58.900Z,55.03
2019-02-28T04:41:32.979Z,53.40
2019-02-28T04:44:04.186Z,55.77
2019-02-28T04:46:35.672Z,56.63
2019-02-28T04:49:07.140Z,53.83
2019-02-28T04:51:40.139Z,53.87
2019-02-28T04:54:11.852Z,56.20
2019-02-28T04:56:45.625Z,58.20
2019-02-28T04:59:16.598Z,56.00
2019-02-28T05:01:48.141Z,52.37
2019-02-28T05:04:19.726Z,57.00
2019-02-28T05:06:52.141Z,60.87
2019-02-28T05:09:24.349Z,59.90
2019-02-28T05:11:55.780Z,61.57
2019-02-28T05:14:27.316Z,58.60
2019-02-28T05:16:58.810Z,55.07
2019-02-28T05:19:32.329Z,55.20
2019-02-28T05:22:04.966Z,50.17
2019-02-28T05:24:39.522Z,55.57
2019-02-28T05:27:09.751Z,59.60
2019-02-28T05:29:43.924Z,59.90
2019-02-28T05:32:14.413Z,60.57
2019-02-28T05:34:47.471Z,57.87
2019-02-28T05:37:19.101Z,60.53
2019-02-28T05:39:50.615Z,58.17
2019-02-28T05:42:23.372Z,53.07
2019-02-28T05:44:55.319Z,63.83
2019-02-28T05:47:29.438Z,62.80
2019-02-28T05:49:59.928Z,58.77
2019-02-28T05:52:33.731Z,61.00
2019-02-28T05:55:05.087Z,58.73
2019-02-28T05:57:39.430Z,61.17
2019-02-28T06:00:10.849Z,61.80
2019-02-28T06:02:42.382Z,64.90
2019-02-28T06:05:16.201Z,59.57
2019-02-28T06:07:47.663Z,58.93
2019-02-28T06:10:23.525Z,67.30
2019-02-28T06:12:53.410Z,70.60
2019-02-28T06:15:24.905Z,70.17
2019-02-28T06:17:56.387Z,67.50
2019-02-28T06:20:27.865Z,69.33
2019-02-28T06:22:59.333Z,68.23
2019-02-28T06:25:30.898Z,76.60
2019-02-28T06:28:04.109Z,65.50
2019-02-28T06:30:35.570Z,72.40
2019-02-28T06:33:08.071Z,75.50
2019-02-28T06:35:39.531Z,66.53
2019-02-28T06:38:11.016Z,76.00
2019-02-28T06:40:42.618Z,65.07
2019-02-28T06:43:14.241Z,55.27
2019-02-28T06:45:45.811Z,69.27
2019-02-28T06:48:17.396Z,75.17
2019-02-28T06:50:48.993Z,67.23
2019-02-28T06:53:20.471Z,65.43
2019-02-28T06:55:51.997Z,74.00
2019-02-28T06:58:23.454Z,69.37
2019-02-28T07:00:54.969Z,68.33
2019-02-28T07:03:26.506Z,76.10
2019-02-28T07:06:01.194Z,78.03
2019-02-28T07:08:31.257Z,76.67
2019-02-28T07:11:02.883Z,80.50
2019-02-28T07:13:39.018Z,79.30
2019-02-28T07:16:07.563Z,76.47
2019-02-28T07:18:39.074Z,76.33
2019-02-28T07:21:10.542Z,78.57
2019-02-28T07:23:42.091Z,59.93
2019-02-28T07:26:13.633Z,84.30
2019-02-28T07:28:45.097Z,78.37
2019-02-28T07:31:16.649Z,72.03
2019-02-28T07:33:51.369Z,78.67
2019-02-28T07:36:44.842Z,80.70
2019-02-28T07:39:15.240Z,62.10
2019-02-28T07:41:46.700Z,82.10
2019-02-28T07:44:22.248Z,82.77
2019-02-28T07:46:52.493Z,79.97
2019-02-28T07:49:25.954Z,60.03
2019-02-28T07:51:57.957Z,80.87
2019-02-28T07:54:31.273Z,79.80
2019-02-28T07:57:03.158Z,70.10
2019-02-28T07:59:40.675Z,80.23
2019-02-28T08:02:08.167Z,83.83
2019-02-28T08:04:39.710Z,86.60
2019-02-28T08:07:14.884Z,84.47
2019-02-28T08:09:45.078Z,76.17
2019-02-28T08:12:27.463Z,72.63
2019-02-28T08:15:00.407Z,68.40
2019-02-28T08:17:31.959Z,69.83
2019-02-28T08:20:04.768Z,73.50
2019-02-28T08:22:36.380Z,72.70
2019-02-28T08:25:19.782Z,71.13
2019-02-28T08:27:59.235Z,66.80
2019-02-28T08:30:27.280Z,72.10
2019-02-28T08:32:58.745Z,59.93
2019-02-28T08:35:34.065Z,70.47
2019-02-28T08:38:03.633Z,62.03
2019-02-28T08:40:35.266Z,67.57
2019-02-28T08:43:07.113Z,61.27
2019-02-28T08:45:38.767Z,64.27
2019-02-28T08:48:10.263Z,68.30
2019-02-28T08:50:47.738Z,67.47
2019-02-28T08:53:19.725Z,66.10
2019-02-28T08:55:51.220Z,62.50
2019-02-28T08:58:22.714Z,58.47
2019-02-28T09:00:54.144Z,61.60
2019-02-28T09:03:27.448Z,59.00
2019-02-28T09:06:00.942Z,62.30
2019-02-28T09:08:32.234Z,55.83
2019-02-28T09:11:03.699Z,49.43
2019-02-28T09:13:35.164Z,56.00
2019-02-28T09:16:07.134Z,53.10
2019-02-28T09:18:38.775Z,51.90
2019-02-28T09:21:10.548Z,53.27
2019-02-28T09:23:42.321Z,46.87
2019-02-28T09:26:13.964Z,48.67
2019-02-28T09:28:51.390Z,46.97
2019-02-28T09:31:22.858Z,47.47
2019-02-28T09:33:55.405Z,47.23
2019-02-28T09:36:27.535Z,49.07
2019-02-28T09:38:59.716Z,45.37
2019-02-28T09:41:31.170Z,41.77
2019-02-28T09:44:02.646Z,41.67
2019-02-28T09:46:34.144Z,44.77
2019-02-28T09:49:05.865Z,41.90
2019-02-28T09:51:37.346Z,30.20
2019-02-28T09:54:08.834Z,38.13
2019-02-28T09:56:41.120Z,32.93
2019-02-28T09:59:13.618Z,38.07
2019-02-28T10:01:45.131Z,35.37
2019-02-28T10:04:16.694Z,31.57
2019-02-28T10:06:48.531Z,34.47
2019-02-28T10:09:21.588Z,28.40
2019-02-28T10:11:53.295Z,30.10
2019-02-28T10:14:25.710Z,28.03
2019-02-28T10:16:58.176Z,24.20
2019-02-28T10:19:30.721Z,25.97
2019-02-28T10:22:06.145Z,27.73
2019-02-28T10:24:37.740Z,27.63
2019-02-28T10:27:09.170Z,29.40
2019-02-28T10:29:41.912Z,25.13
2019-02-28T10:32:14.282Z,26.40
2019-02-28T10:34:45.832Z,23.87
2019-02-28T10:37:19.311Z,30.63
2019-02-28T10:39:50.678Z,26.13
2019-02-28T10:42:22.768Z,26.10
2019-02-28T10:44:55.841Z,26.27
2019-02-28T10:47:29.605Z,26.27
2019-02-28T10:50:01.479Z,27.37
2019-02-28T10:52:33.223Z,29.80
2019-02-28T10:55:05.442Z,26.87
2019-02-28T10:57:37.267Z,23.83
2019-02-28T11:00:15.779Z,26.27
2019-02-28T11:02:50.442Z,23.70
2019-02-28T11:05:29.206Z,25.70
2019-02-28T11:08:03.563Z,27.40
2019-02-28T11:10:40.016Z,29.00
2019-02-28T11:13:14.403Z,26.93
2019-02-28T11:15:48.335Z,24.90
2019-02-28T11:18:19.477Z,28.97
2019-02-28T11:20:54.144Z,30.37
2019-02-28T11:23:25.649Z,30.27
2019-02-28T11:25:57.626Z,28.80
2019-02-28T11:28:29.310Z,25.20
2019-02-28T11:31:01.527Z,26.67
2019-02-28T11:33:33.285Z,21.03
2019-02-28T11:36:07.833Z,25.47
2019-02-28T11:38:39.407Z,22.47
2019-02-28T11:41:11.106Z,24.27
2019-02-28T11:43:42.732Z,22.83
2019-02-28T11:46:20.279Z,26.10
2019-02-28T11:48:53.961Z,24.17
2019-02-28T11:51:25.126Z,21.90
2019-02-28T11:53:56.664Z,24.43
2019-02-28T11:56:28.905Z,25.50
2019-02-28T11:59:01.033Z,23.50
2019-02-28T12:01:32.792Z,25.20
2019-02-28T12:04:04.401Z,20.93
2019-02-28T12:06:36.036Z,22.40
2019-02-28T12:09:10.462Z,20.40
2019-02-28T12:11:42.219Z,19.97
2019-02-28T12:14:13.987Z,19.37
2019-02-28T12:16:45.542Z,18.83
2019-02-28T12:19:17.187Z,19.80
2019-02-28T12:21:48.741Z,20.83
2019-02-28T12:24:20.483Z,19.73
2019-02-28T12:26:52.713Z,21.07
2019-02-28T12:29:25.045Z,20.43
2019-02-28T12:31:56.591Z,23.70
2019-02-28T12:34:29.823Z,21.90
2019-02-28T12:37:01.247Z,18.80
2019-02-28T12:39:33.353Z,21.47
2019-02-28T12:42:05.959Z,15.90
2019-02-28T12:44:37.425Z,19.00
2019-02-28T12:47:09.073Z,18.00
2019-02-28T12:49:40.659Z,19.60
2019-02-28T12:52:14.510Z,20.37
2019-02-28T12:54:45.683Z,15.90
2019-02-28T12:57:19.327Z,19.90
2019-02-28T12:59:50.584Z,19.20
2019-02-28T13:02:22.135Z,16.07
2019-02-28T13:04:53.589Z,19.87
2019-02-28T13:07:25.131Z,19.77
2019-02-28T13:09:56.610Z,17.50
2019-02-28T13:12:28.456Z,17.70
2019-02-28T13:15:00.454Z,16.80
2019-02-28T13:17:32.963Z,17.60
2019-02-28T13:20:06.834Z,18.60
2019-02-28T13:22:38.433Z,20.67
2019-02-28T13:25:11.839Z,17.40
2019-02-28T13:27:45.203Z,18.93
2019-02-28T13:30:23.005Z,19.17
2019-02-28T13:32:56.350Z,21.13
2019-02-28T13:35:30.652Z,19.57
2019-02-28T13:38:02.163Z,17.57
2019-02-28T13:40:33.595Z,12.03
2019-02-28T13:43:05.187Z,16.40
2019-02-28T13:45:36.625Z,18.27
2019-02-28T13:48:11.130Z,18.93
2019-02-28T13:50:42.576Z,18.50
2019-02-28T13:53:18.192Z,18.30
2019-02-28T13:55:47.153Z,18.70
2019-02-28T13:58:21.636Z,21.63
2019-02-28T14:00:51.839Z,19.40
2019-02-28T14:03:23.449Z,19.33
2019-02-28T14:05:55.015Z,16.73
2019-02-28T14:08:26.655Z,18.60
2019-02-28T14:10:58.436Z,18.83
2019-02-28T14:13:34.741Z,19.07
2019-02-28T14:16:06.646Z,18.33
2019-02-28T14:18:38.179Z,15.60
2019-02-28T14:21:09.724Z,20.10
2019-02-28T14:23:41.355Z,13.47
2019-02-28T14:26:14.035Z,17.60
2019-02-28T14:28:47.117Z,16.70
2019-02-28T14:31:18.582Z,19.20
2019-02-28T14:33:51.505Z,18.57
2019-02-28T14:36:23.407Z,18.63
2019-02-28T14:38:55.182Z,14.77
2019-02-28T14:41:28.055Z,16.00
2019-02-28T14:44:00.346Z,12.77
2019-02-28T14:46:42.153Z,14.60
2019-02-28T14:49:13.732Z,16.27
2019-02-28T14:51:45.282Z,16.07
2019-02-28T14:54:16.753Z,17.20
2019-02-28T14:56:48.241Z,17.83
2019-02-28T14:59:19.753Z,15.57
2019-02-28T15:01:53.044Z,15.47
2019-02-28T15:04:24.665Z,16.57
2019-02-28T15:06:56.785Z,18.00
2019-02-28T15:09:28.382Z,16.87
2019-02-28T15:12:00.020Z,16.80
2019-02-28T15:14:31.508Z,18.77
2019-02-28T15:17:06.836Z,18.87
2019-02-28T15:19:38.467Z,18.40
2019-02-28T15:22:14.273Z,19.23
2019-02-28T15:24:46.250Z,16.40
2019-02-28T15:27:17.754Z,17.70
2019-02-28T15:29:49.242Z,17.20
2019-02-28T15:32:20.904Z,17.47
2019-02-28T15:34:52.376Z,15.30
2019-02-28T15:37:23.856Z,19.60
2019-02-28T15:39:55.389Z,14.83
2019-02-28T15:42:26.845Z,15.27
2019-02-28T15:45:17.515Z,13.73
2019-02-28T15:47:49.125Z,15.27
2019-02-28T15:50:20.745Z,15.10
2019-02-28T15:52:52.499Z,19.50
2019-02-28T15:55:24.848Z,17.40
2019-02-28T15:57:56.364Z,19.27
2019-02-28T16:00:31.589Z,19.47
2019-02-28T16:03:16.799Z,17.87
2019-02-28T16:05:47.960Z,18.23
2019-02-28T16:08:19.724Z,19.50
2019-02-28T16:10:53.608Z,18.70
2019-02-28T16:13:25.807Z,19.27
2019-02-28T16:16:04.215Z,18.90
2019-02-28T16:18:35.824Z,19.23
2019-02-28T16:21:08.229Z,19.40
2019-02-28T16:23:39.699Z,18.87
2019-02-28T16:26:11.244Z,18.97
2019-02-28T16:28:43.453Z,19.20
2019-02-28T16:31:15.264Z,20.70
2019-02-28T16:33:47.016Z,10.43
2019-02-28T16:36:18.796Z,21.30
2019-02-28T16:38:50.598Z,17.40
2019-02-28T16:41:22.387Z,21.70
2019-02-28T16:43:57.171Z,19.27
2019-02-28T16:46:30.210Z,19.73
2019-02-28T16:49:02.710Z,21.47
2019-02-28T16:51:34.227Z,21.30
2019-02-28T16:54:05.688Z,19.53
2019-02-28T16:56:37.720Z,18.27
2019-02-28T16:59:10.149Z,19.07
2019-02-28T17:01:41.613Z,18.70
2019-02-28T17:04:13.495Z,18.40
2019-02-28T17:06:46.350Z,18.27
2019-02-28T17:09:42.802Z,18.30
2019-02-28T17:12:29.411Z,18.30
2019-02-28T17:15:01.092Z,12.40
2019-02-28T17:17:37.547Z,15.30
2019-02-28T17:20:09.499Z,14.97
2019-02-28T17:22:41.167Z,14.80
2019-02-28T17:25:14.110Z,15.73
2019-02-28T17:27:51.912Z,13.17
2019-02-28T17:30:45.888Z,14.87
2019-02-28T17:33:21.497Z,14.20
2019-02-28T17:35:54.436Z,13.13
2019-02-28T17:38:27.019Z,9.43
2019-02-28T17:40:58.795Z,14.07
2019-02-28T17:43:31.969Z,14.93
2019-02-28T17:46:12.971Z,14.87
2019-02-28T17:49:29.261Z,13.73
2019-02-28T17:52:12.513Z,13.73
2019-02-28T17:55:47.727Z,15.53
2019-02-28T17:59:10.419Z,14.37
2019-02-28T18:02:22.866Z,16.20
2019-02-28T18:05:59.596Z,13.00
2019-02-28T18:09:26.818Z,14.90
2019-02-28T18:13:04.190Z,14.20
2019-02-28T18:16:21.374Z,14.63
2019-02-28T18:20:13.039Z,15.80
2019-02-28T18:23:34.810Z,15.03
2019-02-28T18:27:21.680Z,16.23
2019-02-28T18:30:42.630Z,12.87
2019-02-28T18:33:15.026Z,14.23
2019-02-28T18:35:46.825Z,15.07
2019-02-28T18:38:19.209Z,14.03
2019-02-28T18:40:50.786Z,13.43
2019-02-28T18:43:23.945Z,11.57
2019-02-28T18:45:57.747Z,13.27
2019-02-28T18:48:29.335Z,9.83
2019-02-28T18:51:01.903Z,13.10
2019-02-28T18:53:33.450Z,13.87
2019-02-28T18:56:05.018Z,14.33
2019-02-28T18:58:36.617Z,15.10
2019-02-28T19:01:08.149Z,15.00
2019-02-28T19:03:41.497Z,14.90
2019-02-28T19:06:14.517Z,14.40
2019-02-28T19:08:46.196Z,16.00
2019-02-28T19:11:18.914Z,14.20
2019-02-28T19:13:50.494Z,16.67
2019-02-28T19:16:22.148Z,16.93
2019-02-28T19:18:53.673Z,16.83
2019-02-28T19:21:25.316Z,14.80
2019-02-28T19:23:56.926Z,17.40
2019-02-28T19:26:33.759Z,16.70
2019-02-28T19:29:05.260Z,14.77
2019-02-28T19:31:36.759Z,16.07
2019-02-28T19:34:08.370Z,15.77
2019-02-28T19:36:40.985Z,15.60
2019-02-28T19:39:12.573Z,17.40
2019-02-28T19:41:44.115Z,16.10
2019-02-28T19:44:15.760Z,16.47
2019-02-28T19:46:47.456Z,18.30
2019-02-28T19:49:19.151Z,18.27
2019-02-28T19:51:50.922Z,17.83
2019-02-28T19:54:22.707Z,16.17
2019-02-28T19:56:54.906Z,16.90
2019-02-28T19:59:26.879Z,17.40
2019-02-28T20:01:58.414Z,18.43
2019-02-28T20:04:30.027Z,16.17
2019-02-28T20:07:01.655Z,17.97
2019-02-28T20:09:34.412Z,18.10
2019-02-28T20:12:06.057Z,17.50
2019-02-28T20:14:37.738Z,17.47
2019-02-28T20:17:09.501Z,17.77
2019-02-28T20:19:41.010Z,17.47
2019-02-28T20:22:12.732Z,17.57
2019-02-28T20:24:44.407Z,18.13
2019-02-28T20:27:16.159Z,17.73
2019-02-28T20:29:54.871Z,16.47
2019-02-28T20:32:21.349Z,17.63
2019-02-28T20:34:53.258Z,16.70
2019-02-28T20:37:24.773Z,17.17
2019-02-28T20:39:58.041Z,15.83
2019-02-28T20:42:31.152Z,17.97
2019-02-28T20:45:07.656Z,17.47
2019-02-28T20:47:39.421Z,16.90
2019-02-28T20:50:16.467Z,16.20
2019-02-28T20:52:48.114Z,16.20
2019-02-28T20:55:19.726Z,16.70
2019-02-28T20:57:51.611Z,18.30
2019-02-28T21:00:27.153Z,16.53
2019-02-28T21:02:58.795Z,15.67
2019-02-28T21:05:30.527Z,18.20
2019-02-28T21:08:03.529Z,17.17
2019-02-28T21:10:36.991Z,16.53
2019-02-28T21:13:08.791Z,19.00
2019-02-28T21:15:40.512Z,16.53
2019-02-28T21:18:12.354Z,17.33
2019-02-28T21:20:44.147Z,17.73
2019-02-28T21:23:16.024Z,16.80
2019-02-28T21:25:47.611Z,15.40
2019-02-28T21:28:19.250Z,17.27
2019-02-28T21:30:50.785Z,16.57
2019-02-28T21:33:22.392Z,16.57
2019-02-28T21:35:54.980Z,15.70
2019-02-28T21:38:26.562Z,15.83
2019-02-28T21:40:58.227Z,15.10
2019-02-28T21:43:30.059Z,13.67
2019-02-28T21:46:01.690Z,13.87
2019-02-28T21:48:33.433Z,14.00
2019-02-28T21:51:05.130Z,15.37
2019-02-28T21:53:36.906Z,15.03
2019-02-28T21:56:08.464Z,14.40
2019-02-28T21:58:40.008Z,12.67
2019-02-28T22:01:11.645Z,13.50
2019-02-28T22:03:43.534Z,13.17
2019-02-28T22:06:15.154Z,13.93
2019-02-28T22:08:46.916Z,14.10
2019-02-28T22:11:18.670Z,13.47
2019-02-28T22:13:50.416Z,13.73
2019-02-28T22:16:23.342Z,14.30
2019-02-28T22:18:55.302Z,14.17
2019-02-28T22:21:26.894Z,13.30
2019-02-28T22:23:58.559Z,12.67
2019-02-28T22:26:30.016Z,11.73
2019-02-28T22:29:01.837Z,13.63
2019-02-28T22:31:47.315Z,17.37
2019-02-28T22:34:32.780Z,17.53
2019-02-28T22:37:04.368Z,15.63
2019-02-28T22:39:36.006Z,15.63
2019-02-28T22:42:08.579Z,14.30
2019-02-28T22:44:40.091Z,15.10
2019-02-28T22:47:11.552Z,13.00
2019-02-28T22:49:44.122Z,15.17
2019-02-28T22:52:15.653Z,15.90
2019-02-28T22:54:48.805Z,14.10
2019-02-28T22:57:20.347Z,13.93
2019-02-28T22:59:51.953Z,14.93
2019-02-28T23:02:24.538Z,14.90
2019-02-28T23:04:56.261Z,15.07
2019-02-28T23:07:27.856Z,14.57
2019-02-28T23:09:59.401Z,15.40
2019-02-28T23:12:30.919Z,15.70
2019-02-28T23:15:02.451Z,16.13
2019-02-28T23:17:35.212Z,14.63
2019-02-28T23:20:06.992Z,15.60
2019-02-28T23:22:38.495Z,14.50
2019-02-28T23:25:10.064Z,15.70
2019-02-28T23:27:41.597Z,15.47
2019-02-28T23:31:09.181Z,16.90
2019-02-28T23:33:40.822Z,16.63
2019-02-28T23:36:12.387Z,16.50
2019-02-28T23:38:43.879Z,17.07
2019-02-28T23:41:34.466Z,17.67
2019-02-28T23:44:06.098Z,16.53
2019-02-28T23:46:37.645Z,17.67
2019-02-28T23:49:09.807Z,18.83
2019-02-28T23:51:44.254Z,18.43
2019-02-28T23:54:15.685Z,19.80
2019-02-28T23:56:47.166Z,19.93
2019-02-28T23:59:18.667Z,20.27
